sensor_id;sensor_type;location;lat;lon;timestamp;temperature;humidity
34877;DHT22;21086;44.780;17.194;2023-01-23T00:01:19;4.20;99.90
34877;DHT22;21086;44.780;17.194;2023-01-23T00:03:46;4.20;99.90
34877;DHT22;21086;44.780;17.194;2023-01-23T00:12:17;4.20;99.90
34877;DHT22;21086;44.780;17.194;2023-01-23T00:14:44;4.00;99.90
34877;DHT22;21086;44.780;17.194;2023-01-23T00:17:11;3.90;99.90
34877;DHT22;21086;44.780;17.194;2023-01-23T00:19:42;3.80;99.90
34877;DHT22;21086;44.780;17.194;2023-01-23T00:28:42;3.70;99.90
34877;DHT22;21086;44.780;17.194;2023-01-23T00:40:51;4.00;99.90
34877;DHT22;21086;44.780;17.194;2023-01-23T00:43:20;4.00;99.90
34877;DHT22;21086;44.780;17.194;2023-01-23T00:45:49;4.00;99.90
34877;DHT22;21086;44.780;17.194;2023-01-23T00:48:16;4.00;99.90
34877;DHT22;21086;44.780;17.194;2023-01-23T00:50:43;3.80;99.90
34877;DHT22;21086;44.780;17.194;2023-01-23T00:55:56;3.80;99.90
34877;DHT22;21086;44.780;17.194;2023-01-23T01:00:58;3.80;99.90
34877;DHT22;21086;44.780;17.194;2023-01-23T01:06:00;4.00;99.90
34877;DHT22;21086;44.780;17.194;2023-01-23T01:08:27;4.00;99.90
34877;DHT22;21086;44.780;17.194;2023-01-23T01:10:55;4.00;99.90
34877;DHT22;21086;44.780;17.194;2023-01-23T01:13:22;4.00;99.90
34877;DHT22;21086;44.780;17.194;2023-01-23T01:15:53;3.90;99.90
34877;DHT22;21086;44.780;17.194;2023-01-23T01:18:21;3.80;99.90
34877;DHT22;21086;44.780;17.194;2023-01-23T01:23:47;4.00;99.90
34877;DHT22;21086;44.780;17.194;2023-01-23T01:35:43;3.80;99.90
34877;DHT22;21086;44.780;17.194;2023-01-23T01:38:10;3.90;99.90
34877;DHT22;21086;44.780;17.194;2023-01-23T01:57:39;3.80;99.90
34877;DHT22;21086;44.780;17.194;2023-01-23T02:02:58;3.70;99.90
34877;DHT22;21086;44.780;17.194;2023-01-23T02:11:31;3.70;99.90
34877;DHT22;21086;44.780;17.194;2023-01-23T02:13:59;3.80;99.90
34877;DHT22;21086;44.780;17.194;2023-01-23T02:16:28;3.60;99.90
34877;DHT22;21086;44.780;17.194;2023-01-23T02:19:03;3.60;99.90
34877;DHT22;21086;44.780;17.194;2023-01-23T02:21:35;3.80;99.90
34877;DHT22;21086;44.780;17.194;2023-01-23T02:26:45;3.70;99.90
34877;DHT22;21086;44.780;17.194;2023-01-23T02:29:14;3.70;99.90
34877;DHT22;21086;44.780;17.194;2023-01-23T02:36:58;3.90;99.90
34877;DHT22;21086;44.780;17.194;2023-01-23T02:39:26;3.90;99.90
34877;DHT22;21086;44.780;17.194;2023-01-23T02:44:29;3.90;99.90
34877;DHT22;21086;44.780;17.194;2023-01-23T02:52:32;3.90;99.90
34877;DHT22;21086;44.780;17.194;2023-01-23T03:00:53;4.00;99.90
34877;DHT22;21086;44.780;17.194;2023-01-23T03:03:20;3.90;99.90
34877;DHT22;21086;44.780;17.194;2023-01-23T03:08:34;5.30;99.90
34877;DHT22;21086;44.780;17.194;2023-01-23T03:18:19;3.90;99.90
34877;DHT22;21086;44.780;17.194;2023-01-23T03:26:06;4.00;99.90
34877;DHT22;21086;44.780;17.194;2023-01-23T03:28:33;4.00;99.90
34877;DHT22;21086;44.780;17.194;2023-01-23T03:31:19;4.10;99.90
34877;DHT22;21086;44.780;17.194;2023-01-23T03:33:45;4.00;99.90
34877;DHT22;21086;44.780;17.194;2023-01-23T03:36:13;3.90;99.90
34877;DHT22;21086;44.780;17.194;2023-01-23T03:38:41;4.00;99.90
34877;DHT22;21086;44.780;17.194;2023-01-23T03:41:30;4.00;99.90
34877;DHT22;21086;44.780;17.194;2023-01-23T03:43:57;4.10;99.90
34877;DHT22;21086;44.780;17.194;2023-01-23T03:46:27;4.10;99.90
34877;DHT22;21086;44.780;17.194;2023-01-23T03:48:56;4.10;99.90
34877;DHT22;21086;44.780;17.194;2023-01-23T03:51:33;4.10;99.90
34877;DHT22;21086;44.780;17.194;2023-01-23T03:54:00;4.20;99.90
34877;DHT22;21086;44.780;17.194;2023-01-23T03:56:44;4.20;99.90
34877;DHT22;21086;44.780;17.194;2023-01-23T03:59:10;4.30;99.90
34877;DHT22;21086;44.780;17.194;2023-01-23T04:01:39;4.20;99.90
34877;DHT22;21086;44.780;17.194;2023-01-23T04:04:06;4.20;99.90
34877;DHT22;21086;44.780;17.194;2023-01-23T04:06:33;4.30;99.90
34877;DHT22;21086;44.780;17.194;2023-01-23T04:09:00;4.40;99.90
34877;DHT22;21086;44.780;17.194;2023-01-23T04:11:27;4.30;99.90
34877;DHT22;21086;44.780;17.194;2023-01-23T04:17:08;4.30;99.90
34877;DHT22;21086;44.780;17.194;2023-01-23T04:19:35;4.20;99.90
34877;DHT22;21086;44.780;17.194;2023-01-23T04:22:02;4.20;99.90
34877;DHT22;21086;44.780;17.194;2023-01-23T04:24:29;4.20;99.90
34877;DHT22;21086;44.780;17.194;2023-01-23T04:30:22;4.00;99.90
34877;DHT22;21086;44.780;17.194;2023-01-23T04:32:49;4.10;99.90
34877;DHT22;21086;44.780;17.194;2023-01-23T04:35:16;4.10;99.90
34877;DHT22;21086;44.780;17.194;2023-01-23T04:37:43;4.10;99.90
34877;DHT22;21086;44.780;17.194;2023-01-23T04:43:24;4.00;99.90
34877;DHT22;21086;44.780;17.194;2023-01-23T04:48:40;4.20;99.90
34877;DHT22;21086;44.780;17.194;2023-01-23T04:51:07;4.10;99.90
34877;DHT22;21086;44.780;17.194;2023-01-23T04:53:35;4.00;99.90
34877;DHT22;21086;44.780;17.194;2023-01-23T04:56:03;4.00;99.90
34877;DHT22;21086;44.780;17.194;2023-01-23T04:58:30;4.10;99.90
34877;DHT22;21086;44.780;17.194;2023-01-23T05:01:05;4.10;99.90
34877;DHT22;21086;44.780;17.194;2023-01-23T05:09:19;4.10;99.90
34877;DHT22;21086;44.780;17.194;2023-01-23T05:14:59;4.00;99.90
34877;DHT22;21086;44.780;17.194;2023-01-23T05:20:11;4.20;99.90
34877;DHT22;21086;44.780;17.194;2023-01-23T05:22:38;4.20;99.90
34877;DHT22;21086;44.780;17.194;2023-01-23T05:25:23;4.20;99.90
34877;DHT22;21086;44.780;17.194;2023-01-23T05:27:51;4.30;99.90
34877;DHT22;21086;44.780;17.194;2023-01-23T05:38:44;4.10;99.90
34877;DHT22;21086;44.780;17.194;2023-01-23T05:56:33;4.40;99.90
34877;DHT22;21086;44.780;17.194;2023-01-23T06:04:22;4.30;99.90
34877;DHT22;21086;44.780;17.194;2023-01-23T06:06:49;4.30;99.90
34877;DHT22;21086;44.780;17.194;2023-01-23T06:09:17;4.20;99.90
34877;DHT22;21086;44.780;17.194;2023-01-23T06:17:15;4.20;99.90
34877;DHT22;21086;44.780;17.194;2023-01-23T06:19:42;4.30;99.90
34877;DHT22;21086;44.780;17.194;2023-01-23T06:22:09;4.30;99.90
34877;DHT22;21086;44.780;17.194;2023-01-23T06:24:35;4.40;99.90
34877;DHT22;21086;44.780;17.194;2023-01-23T06:27:03;4.30;99.90
34877;DHT22;21086;44.780;17.194;2023-01-23T06:32:46;4.30;99.90
34877;DHT22;21086;44.780;17.194;2023-01-23T06:35:13;4.30;99.90
34877;DHT22;21086;44.780;17.194;2023-01-23T06:37:40;4.30;99.90
34877;DHT22;21086;44.780;17.194;2023-01-23T06:40:08;4.40;99.90
34877;DHT22;21086;44.780;17.194;2023-01-23T06:45:09;4.50;99.90
34877;DHT22;21086;44.780;17.194;2023-01-23T06:47:37;4.40;99.90
34877;DHT22;21086;44.780;17.194;2023-01-23T06:50:04;4.40;99.90
34877;DHT22;21086;44.780;17.194;2023-01-23T06:52:31;4.50;99.90
34877;DHT22;21086;44.780;17.194;2023-01-23T06:57:32;4.40;99.90
34877;DHT22;21086;44.780;17.194;2023-01-23T07:05:31;4.30;99.90
34877;DHT22;21086;44.780;17.194;2023-01-23T07:07:58;4.30;99.90
34877;DHT22;21086;44.780;17.194;2023-01-23T07:10:25;4.50;99.90
34877;DHT22;21086;44.780;17.194;2023-01-23T07:12:52;4.60;99.90
34877;DHT22;21086;44.780;17.194;2023-01-23T07:15:19;4.50;99.90
34877;DHT22;21086;44.780;17.194;2023-01-23T07:17:46;4.70;99.90
34877;DHT22;21086;44.780;17.194;2023-01-23T07:20:34;4.80;99.90
34877;DHT22;21086;44.780;17.194;2023-01-23T07:28:17;4.90;99.90
34877;DHT22;21086;44.780;17.194;2023-01-23T07:36:54;4.80;99.90
34877;DHT22;21086;44.780;17.194;2023-01-23T07:39:21;4.90;99.90
34877;DHT22;21086;44.780;17.194;2023-01-23T07:45:01;4.90;99.90
34877;DHT22;21086;44.780;17.194;2023-01-23T07:53:06;6.00;99.90
34877;DHT22;21086;44.780;17.194;2023-01-23T07:55:37;4.90;99.90
34877;DHT22;21086;44.780;17.194;2023-01-23T07:58:04;4.90;99.90
34877;DHT22;21086;44.780;17.194;2023-01-23T08:00:32;4.90;99.90
34877;DHT22;21086;44.780;17.194;2023-01-23T08:09:22;5.00;99.90
34877;DHT22;21086;44.780;17.194;2023-01-23T08:11:50;4.90;99.90
34877;DHT22;21086;44.780;17.194;2023-01-23T08:14:18;5.10;99.90
34877;DHT22;21086;44.780;17.194;2023-01-23T08:16:50;5.10;99.90
34877;DHT22;21086;44.780;17.194;2023-01-23T08:19:18;5.10;99.90
34877;DHT22;21086;44.780;17.194;2023-01-23T08:21:45;5.10;99.90
34877;DHT22;21086;44.780;17.194;2023-01-23T08:24:13;5.10;99.90
34877;DHT22;21086;44.780;17.194;2023-01-23T08:32:00;5.30;99.90
34877;DHT22;21086;44.780;17.194;2023-01-23T08:37:03;5.20;99.90
34877;DHT22;21086;44.780;17.194;2023-01-23T08:39:32;5.10;99.90
34877;DHT22;21086;44.780;17.194;2023-01-23T08:42:01;5.00;99.90
34877;DHT22;21086;44.780;17.194;2023-01-23T08:44:28;5.10;99.90
34877;DHT22;21086;44.780;17.194;2023-01-23T08:52:00;5.00;99.90
34877;DHT22;21086;44.780;17.194;2023-01-23T08:54:30;5.00;99.90
34877;DHT22;21086;44.780;17.194;2023-01-23T08:59:42;5.00;99.90
34877;DHT22;21086;44.780;17.194;2023-01-23T09:05:30;4.70;99.90
34877;DHT22;21086;44.780;17.194;2023-01-23T09:07:57;4.70;99.90
34877;DHT22;21086;44.780;17.194;2023-01-23T09:16:51;4.50;99.90
34877;DHT22;21086;44.780;17.194;2023-01-23T09:24:34;4.90;99.90
34877;DHT22;21086;44.780;17.194;2023-01-23T09:30:05;4.90;99.90
34877;DHT22;21086;44.780;17.194;2023-01-23T09:32:32;4.80;99.90
34877;DHT22;21086;44.780;17.194;2023-01-23T09:37:44;4.80;99.90
34877;DHT22;21086;44.780;17.194;2023-01-23T09:42:59;5.00;99.90
34877;DHT22;21086;44.780;17.194;2023-01-23T09:45:28;5.10;99.90
34877;DHT22;21086;44.780;17.194;2023-01-23T09:48:09;5.20;99.90
34877;DHT22;21086;44.780;17.194;2023-01-23T09:50:49;5.10;99.90
34877;DHT22;21086;44.780;17.194;2023-01-23T09:53:21;5.00;99.90
34877;DHT22;21086;44.780;17.194;2023-01-23T09:55:58;5.00;99.90
34877;DHT22;21086;44.780;17.194;2023-01-23T09:58:46;5.00;99.90
34877;DHT22;21086;44.780;17.194;2023-01-23T10:01:16;4.90;99.90
34877;DHT22;21086;44.780;17.194;2023-01-23T10:03:43;5.20;99.90
34877;DHT22;21086;44.780;17.194;2023-01-23T10:09:19;6.70;99.90
34877;DHT22;21086;44.780;17.194;2023-01-23T10:15:05;5.30;99.90
34877;DHT22;21086;44.780;17.194;2023-01-23T10:17:44;5.20;99.90
34877;DHT22;21086;44.780;17.194;2023-01-23T10:20:16;5.30;99.90
34877;DHT22;21086;44.780;17.194;2023-01-23T10:25:36;5.30;99.90
34877;DHT22;21086;44.780;17.194;2023-01-23T10:30:54;5.50;99.90
34877;DHT22;21086;44.780;17.194;2023-01-23T10:33:36;5.50;99.90
34877;DHT22;21086;44.780;17.194;2023-01-23T10:41:30;5.50;99.90
34877;DHT22;21086;44.780;17.194;2023-01-23T10:43:59;5.50;99.90
34877;DHT22;21086;44.780;17.194;2023-01-23T10:46:32;5.50;99.90
34877;DHT22;21086;44.780;17.194;2023-01-23T10:48:59;5.60;99.90
34877;DHT22;21086;44.780;17.194;2023-01-23T10:51:33;5.60;99.90
34877;DHT22;21086;44.780;17.194;2023-01-23T10:59:57;5.90;99.90
34877;DHT22;21086;44.780;17.194;2023-01-23T11:02:36;5.90;99.90
34877;DHT22;21086;44.780;17.194;2023-01-23T11:07:53;5.70;99.90
34877;DHT22;21086;44.780;17.194;2023-01-23T11:12:55;5.70;99.90
34877;DHT22;21086;44.780;17.194;2023-01-23T11:15:38;5.60;99.90
34877;DHT22;21086;44.780;17.194;2023-01-23T11:18:41;5.70;99.90
34877;DHT22;21086;44.780;17.194;2023-01-23T11:27:16;5.80;99.90
34877;DHT22;21086;44.780;17.194;2023-01-23T11:39:56;5.90;99.90
34877;DHT22;21086;44.780;17.194;2023-01-23T11:42:16;5.90;99.90
34877;DHT22;21086;44.780;17.194;2023-01-23T11:44:45;6.00;99.90
34877;DHT22;21086;44.780;17.194;2023-01-23T11:53:43;6.20;99.90
34877;DHT22;21086;44.780;17.194;2023-01-23T11:59:45;6.00;99.90
34877;DHT22;21086;44.780;17.194;2023-01-23T12:33:26;6.40;99.90
34877;DHT22;21086;44.780;17.194;2023-01-23T12:47:36;6.40;99.90
34877;DHT22;21086;44.780;17.194;2023-01-23T12:52:48;6.00;99.90
34877;DHT22;21086;44.780;17.194;2023-01-23T12:55:29;5.80;99.90
34877;DHT22;21086;44.780;17.194;2023-01-23T13:15:33;5.80;99.90
34877;DHT22;21086;44.780;17.194;2023-01-23T13:38:33;6.10;99.90
34877;DHT22;21086;44.780;17.194;2023-01-23T13:44:30;6.10;99.90
34877;DHT22;21086;44.780;17.194;2023-01-23T13:52:51;6.50;99.90
34877;DHT22;21086;44.780;17.194;2023-01-23T13:55:53;6.60;99.90
34877;DHT22;21086;44.780;17.194;2023-01-23T13:58:42;6.50;99.90
34877;DHT22;21086;44.780;17.194;2023-01-23T14:03:54;6.70;99.90
34877;DHT22;21086;44.780;17.194;2023-01-23T14:09:58;6.60;99.90
34877;DHT22;21086;44.780;17.194;2023-01-23T14:12:39;6.50;99.90
34877;DHT22;21086;44.780;17.194;2023-01-23T14:18:43;6.50;99.90
34877;DHT22;21086;44.780;17.194;2023-01-23T14:21:29;6.50;99.90
34877;DHT22;21086;44.780;17.194;2023-01-23T14:26:48;6.60;99.90
34877;DHT22;21086;44.780;17.194;2023-01-23T14:29:24;6.60;99.90
34877;DHT22;21086;44.780;17.194;2023-01-23T14:34:39;6.50;99.90
34877;DHT22;21086;44.780;17.194;2023-01-23T14:37:10;6.30;99.90
34877;DHT22;21086;44.780;17.194;2023-01-23T14:39:37;6.30;99.90
34877;DHT22;21086;44.780;17.194;2023-01-23T14:42:23;6.40;99.90
34877;DHT22;21086;44.780;17.194;2023-01-23T14:44:52;6.40;99.90
34877;DHT22;21086;44.780;17.194;2023-01-23T14:49:49;6.10;99.90
34877;DHT22;21086;44.780;17.194;2023-01-23T14:52:37;6.00;99.90
34877;DHT22;21086;44.780;17.194;2023-01-23T14:55:23;6.00;99.90
34877;DHT22;21086;44.780;17.194;2023-01-23T14:57:59;6.10;99.90
34877;DHT22;21086;44.780;17.194;2023-01-23T15:00:27;6.20;99.90
34877;DHT22;21086;44.780;17.194;2023-01-23T15:05:55;6.10;99.90
34877;DHT22;21086;44.780;17.194;2023-01-23T15:08:29;6.10;99.90
34877;DHT22;21086;44.780;17.194;2023-01-23T15:13:54;6.80;99.90
34877;DHT22;21086;44.780;17.194;2023-01-23T15:31:03;6.70;99.90
34877;DHT22;21086;44.780;17.194;2023-01-23T15:33:32;6.80;99.90
34877;DHT22;21086;44.780;17.194;2023-01-23T15:36:26;6.60;99.90
34877;DHT22;21086;44.780;17.194;2023-01-23T15:38:57;6.40;99.90
34877;DHT22;21086;44.780;17.194;2023-01-23T15:41:41;6.20;99.90
34877;DHT22;21086;44.780;17.194;2023-01-23T15:44:18;6.10;99.90
34877;DHT22;21086;44.780;17.194;2023-01-23T15:46:45;6.00;99.90
34877;DHT22;21086;44.780;17.194;2023-01-23T15:55:42;6.10;99.90
34877;DHT22;21086;44.780;17.194;2023-01-23T16:00:58;6.00;99.90
34877;DHT22;21086;44.780;17.194;2023-01-23T16:03:25;6.00;99.90
34877;DHT22;21086;44.780;17.194;2023-01-23T16:05:52;6.00;99.90
34877;DHT22;21086;44.780;17.194;2023-01-23T16:08:20;6.00;99.90
34877;DHT22;21086;44.780;17.194;2023-01-23T16:10:48;6.00;99.90
34877;DHT22;21086;44.780;17.194;2023-01-23T16:13:16;6.00;99.90
34877;DHT22;21086;44.780;17.194;2023-01-23T16:21:18;5.80;99.90
34877;DHT22;21086;44.780;17.194;2023-01-23T16:23:49;5.90;99.90
34877;DHT22;21086;44.780;17.194;2023-01-23T16:38:05;5.80;99.90
34877;DHT22;21086;44.780;17.194;2023-01-23T16:43:08;5.80;99.90
34877;DHT22;21086;44.780;17.194;2023-01-23T16:51:24;5.90;99.90
34877;DHT22;21086;44.780;17.194;2023-01-23T16:53:53;5.80;99.90
34877;DHT22;21086;44.780;17.194;2023-01-23T16:56:29;5.70;99.90
34877;DHT22;21086;44.780;17.194;2023-01-23T16:58:58;5.50;99.90
34877;DHT22;21086;44.780;17.194;2023-01-23T17:01:25;5.50;99.90
34877;DHT22;21086;44.780;17.194;2023-01-23T17:03:59;5.70;99.90
34877;DHT22;21086;44.780;17.194;2023-01-23T17:06:28;5.80;99.90
34877;DHT22;21086;44.780;17.194;2023-01-23T17:08:55;5.80;99.90
34877;DHT22;21086;44.780;17.194;2023-01-23T17:11:33;5.60;99.90
34877;DHT22;21086;44.780;17.194;2023-01-23T17:14:08;5.50;99.90
34877;DHT22;21086;44.780;17.194;2023-01-23T17:16:37;5.40;99.90
34877;DHT22;21086;44.780;17.194;2023-01-23T17:19:17;5.30;99.90
34877;DHT22;21086;44.780;17.194;2023-01-23T17:21:44;5.20;99.90
34877;DHT22;21086;44.780;17.194;2023-01-23T17:24:14;5.10;99.90
34877;DHT22;21086;44.780;17.194;2023-01-23T17:26:42;4.90;99.90
34877;DHT22;21086;44.780;17.194;2023-01-23T17:29:10;4.80;99.90
34877;DHT22;21086;44.780;17.194;2023-01-23T17:31:38;4.70;99.90
34877;DHT22;21086;44.780;17.194;2023-01-23T17:34:06;4.70;99.90
34877;DHT22;21086;44.780;17.194;2023-01-23T17:36:35;4.80;99.90
34877;DHT22;21086;44.780;17.194;2023-01-23T17:39:02;4.80;99.90
34877;DHT22;21086;44.780;17.194;2023-01-23T17:41:29;4.70;99.90
34877;DHT22;21086;44.780;17.194;2023-01-23T17:43:58;4.70;99.90
34877;DHT22;21086;44.780;17.194;2023-01-23T17:46:27;4.70;99.90
34877;DHT22;21086;44.780;17.194;2023-01-23T17:48:55;4.70;99.90
34877;DHT22;21086;44.780;17.194;2023-01-23T17:51:23;4.70;99.90
34877;DHT22;21086;44.780;17.194;2023-01-23T17:53:51;4.90;99.90
34877;DHT22;21086;44.780;17.194;2023-01-23T17:56:19;5.00;99.90
34877;DHT22;21086;44.780;17.194;2023-01-23T17:58:45;5.10;99.90
34877;DHT22;21086;44.780;17.194;2023-01-23T18:01:16;5.10;99.90
34877;DHT22;21086;44.780;17.194;2023-01-23T18:03:44;5.30;99.90
34877;DHT22;21086;44.780;17.194;2023-01-23T18:06:12;5.40;99.90
34877;DHT22;21086;44.780;17.194;2023-01-23T18:08:39;5.40;99.90
34877;DHT22;21086;44.780;17.194;2023-01-23T18:11:28;5.40;99.90
34877;DHT22;21086;44.780;17.194;2023-01-23T18:14:19;5.40;99.90
34877;DHT22;21086;44.780;17.194;2023-01-23T18:16:50;5.50;99.90
34877;DHT22;21086;44.780;17.194;2023-01-23T18:19:19;5.50;99.90
34877;DHT22;21086;44.780;17.194;2023-01-23T18:21:51;5.60;99.90
34877;DHT22;21086;44.780;17.194;2023-01-23T18:27:17;5.50;99.90
34877;DHT22;21086;44.780;17.194;2023-01-23T18:38:51;5.20;99.90
34877;DHT22;21086;44.780;17.194;2023-01-23T18:41:24;5.50;99.90
34877;DHT22;21086;44.780;17.194;2023-01-23T18:46:22;5.10;99.90
34877;DHT22;21086;44.780;17.194;2023-01-23T18:48:53;5.00;99.90
34877;DHT22;21086;44.780;17.194;2023-01-23T19:02:34;5.00;99.90
34877;DHT22;21086;44.780;17.194;2023-01-23T19:07:33;5.10;99.90
34877;DHT22;21086;44.780;17.194;2023-01-23T19:10:00;5.30;99.90
34877;DHT22;21086;44.780;17.194;2023-01-23T19:15:52;5.30;99.90
34877;DHT22;21086;44.780;17.194;2023-01-23T19:18:46;5.20;99.90
34877;DHT22;21086;44.780;17.194;2023-01-23T19:21:22;5.10;99.90
34877;DHT22;21086;44.780;17.194;2023-01-23T19:23:55;5.10;99.90
34877;DHT22;21086;44.780;17.194;2023-01-23T19:26:30;5.20;99.90
34877;DHT22;21086;44.780;17.194;2023-01-23T19:29:00;5.10;99.90
34877;DHT22;21086;44.780;17.194;2023-01-23T19:31:47;5.10;99.90
34877;DHT22;21086;44.780;17.194;2023-01-23T19:34:31;5.00;99.90
34877;DHT22;21086;44.780;17.194;2023-01-23T19:36:59;4.90;99.90
34877;DHT22;21086;44.780;17.194;2023-01-23T19:39:26;4.90;99.90
34877;DHT22;21086;44.780;17.194;2023-01-23T19:41:53;4.80;99.90
34877;DHT22;21086;44.780;17.194;2023-01-23T19:44:20;4.70;99.90
34877;DHT22;21086;44.780;17.194;2023-01-23T19:46:50;4.70;99.90
34877;DHT22;21086;44.780;17.194;2023-01-23T19:49:18;4.60;99.90
34877;DHT22;21086;44.780;17.194;2023-01-23T19:51:46;4.50;99.90
34877;DHT22;21086;44.780;17.194;2023-01-23T19:54:14;4.50;99.90
34877;DHT22;21086;44.780;17.194;2023-01-23T19:56:41;4.50;99.90
34877;DHT22;21086;44.780;17.194;2023-01-23T19:59:08;4.50;99.90
34877;DHT22;21086;44.780;17.194;2023-01-23T20:01:42;4.50;99.90
34877;DHT22;21086;44.780;17.194;2023-01-23T20:04:13;4.50;99.90
34877;DHT22;21086;44.780;17.194;2023-01-23T20:06:42;4.50;99.90
34877;DHT22;21086;44.780;17.194;2023-01-23T20:09:11;4.50;99.90
34877;DHT22;21086;44.780;17.194;2023-01-23T20:11:43;4.40;99.90
34877;DHT22;21086;44.780;17.194;2023-01-23T20:14:11;4.50;99.90
34877;DHT22;21086;44.780;17.194;2023-01-23T20:16:39;4.50;99.90
34877;DHT22;21086;44.780;17.194;2023-01-23T20:19:12;4.40;99.90
34877;DHT22;21086;44.780;17.194;2023-01-23T20:21:39;4.40;99.90
34877;DHT22;21086;44.780;17.194;2023-01-23T20:24:06;4.50;99.90
34877;DHT22;21086;44.780;17.194;2023-01-23T20:26:34;4.60;99.90
34877;DHT22;21086;44.780;17.194;2023-01-23T20:29:01;4.60;99.90
34877;DHT22;21086;44.780;17.194;2023-01-23T20:31:29;4.70;99.90
34877;DHT22;21086;44.780;17.194;2023-01-23T20:33:57;4.80;99.90
34877;DHT22;21086;44.780;17.194;2023-01-23T20:36:23;4.90;99.90
34877;DHT22;21086;44.780;17.194;2023-01-23T20:38:50;5.00;99.90
34877;DHT22;21086;44.780;17.194;2023-01-23T20:41:19;5.10;99.90
34877;DHT22;21086;44.780;17.194;2023-01-23T20:43:47;5.10;99.90
34877;DHT22;21086;44.780;17.194;2023-01-23T20:46:15;5.10;99.90
34877;DHT22;21086;44.780;17.194;2023-01-23T20:48:43;5.10;99.90
34877;DHT22;21086;44.780;17.194;2023-01-23T20:51:12;5.10;99.90
34877;DHT22;21086;44.780;17.194;2023-01-23T20:53:40;5.10;99.90
34877;DHT22;21086;44.780;17.194;2023-01-23T20:56:10;4.90;99.90
34877;DHT22;21086;44.780;17.194;2023-01-23T20:58:41;4.90;99.90
34877;DHT22;21086;44.780;17.194;2023-01-23T21:01:30;4.80;99.90
34877;DHT22;21086;44.780;17.194;2023-01-23T21:04:17;4.70;99.90
34877;DHT22;21086;44.780;17.194;2023-01-23T21:06:44;4.60;99.90
34877;DHT22;21086;44.780;17.194;2023-01-23T21:09:11;4.60;99.90
34877;DHT22;21086;44.780;17.194;2023-01-23T21:11:38;4.60;99.90
34877;DHT22;21086;44.780;17.194;2023-01-23T21:14:05;4.50;99.90
34877;DHT22;21086;44.780;17.194;2023-01-23T21:16:32;4.50;99.90
34877;DHT22;21086;44.780;17.194;2023-01-23T21:18:59;4.60;99.90
34877;DHT22;21086;44.780;17.194;2023-01-23T21:21:27;4.70;99.90
34877;DHT22;21086;44.780;17.194;2023-01-23T21:23:54;4.80;99.90
34877;DHT22;21086;44.780;17.194;2023-01-23T21:26:23;4.70;99.90
34877;DHT22;21086;44.780;17.194;2023-01-23T21:28:52;4.70;99.90
34877;DHT22;21086;44.780;17.194;2023-01-23T21:31:22;4.70;99.90
34877;DHT22;21086;44.780;17.194;2023-01-23T21:33:50;4.80;99.90
34877;DHT22;21086;44.780;17.194;2023-01-23T21:36:22;4.80;99.90
34877;DHT22;21086;44.780;17.194;2023-01-23T21:38:51;4.80;99.90
34877;DHT22;21086;44.780;17.194;2023-01-23T21:41:19;4.80;99.90
34877;DHT22;21086;44.780;17.194;2023-01-23T21:43:46;4.90;99.90
34877;DHT22;21086;44.780;17.194;2023-01-23T21:46:13;4.90;99.90
34877;DHT22;21086;44.780;17.194;2023-01-23T21:48:41;5.10;99.90
34877;DHT22;21086;44.780;17.194;2023-01-23T21:51:14;5.20;99.90
34877;DHT22;21086;44.780;17.194;2023-01-23T21:53:43;5.20;99.90
34877;DHT22;21086;44.780;17.194;2023-01-23T21:56:11;5.10;99.90
34877;DHT22;21086;44.780;17.194;2023-01-23T21:58:38;5.20;99.90
34877;DHT22;21086;44.780;17.194;2023-01-23T22:01:17;5.10;99.90
34877;DHT22;21086;44.780;17.194;2023-01-23T22:04:04;5.00;99.90
34877;DHT22;21086;44.780;17.194;2023-01-23T22:06:32;5.10;99.90
34877;DHT22;21086;44.780;17.194;2023-01-23T22:08:59;5.10;99.90
34877;DHT22;21086;44.780;17.194;2023-01-23T22:11:27;5.20;99.90
34877;DHT22;21086;44.780;17.194;2023-01-23T22:13:54;5.10;99.90
34877;DHT22;21086;44.780;17.194;2023-01-23T22:16:21;5.10;99.90
34877;DHT22;21086;44.780;17.194;2023-01-23T22:19:12;5.20;99.90
34877;DHT22;21086;44.780;17.194;2023-01-23T22:21:39;5.20;99.90
34877;DHT22;21086;44.780;17.194;2023-01-23T22:24:06;5.20;99.90
34877;DHT22;21086;44.780;17.194;2023-01-23T22:26:34;5.20;99.90
34877;DHT22;21086;44.780;17.194;2023-01-23T22:29:00;5.20;99.90
34877;DHT22;21086;44.780;17.194;2023-01-23T22:31:27;5.30;99.90
34877;DHT22;21086;44.780;17.194;2023-01-23T22:33:54;5.30;99.90
34877;DHT22;21086;44.780;17.194;2023-01-23T22:36:21;5.30;99.90
34877;DHT22;21086;44.780;17.194;2023-01-23T22:38:50;5.30;99.90
34877;DHT22;21086;44.780;17.194;2023-01-23T22:41:19;5.30;99.90
34877;DHT22;21086;44.780;17.194;2023-01-23T22:43:51;5.30;99.90
34877;DHT22;21086;44.780;17.194;2023-01-23T22:46:18;5.40;99.90
34877;DHT22;21086;44.780;17.194;2023-01-23T22:48:46;5.40;99.90
34877;DHT22;21086;44.780;17.194;2023-01-23T22:51:18;5.40;99.90
34877;DHT22;21086;44.780;17.194;2023-01-23T22:53:46;5.40;99.90
34877;DHT22;21086;44.780;17.194;2023-01-23T22:56:13;5.40;99.90
34877;DHT22;21086;44.780;17.194;2023-01-23T22:58:44;5.40;99.90
34877;DHT22;21086;44.780;17.194;2023-01-23T23:01:11;5.50;99.90
34877;DHT22;21086;44.780;17.194;2023-01-23T23:03:39;5.40;99.90
34877;DHT22;21086;44.780;17.194;2023-01-23T23:06:07;5.40;99.90
34877;DHT22;21086;44.780;17.194;2023-01-23T23:08:36;5.40;99.90
34877;DHT22;21086;44.780;17.194;2023-01-23T23:11:08;5.40;99.90
34877;DHT22;21086;44.780;17.194;2023-01-23T23:13:37;5.40;99.90
34877;DHT22;21086;44.780;17.194;2023-01-23T23:16:13;5.40;99.90
34877;DHT22;21086;44.780;17.194;2023-01-23T23:18:45;5.40;99.90
34877;DHT22;21086;44.780;17.194;2023-01-23T23:21:14;5.30;99.90
34877;DHT22;21086;44.780;17.194;2023-01-23T23:23:42;7.30;99.90
34877;DHT22;21086;44.780;17.194;2023-01-23T23:26:09;5.30;99.90
34877;DHT22;21086;44.780;17.194;2023-01-23T23:28:37;5.20;99.90
34877;DHT22;21086;44.780;17.194;2023-01-23T23:31:05;5.10;99.90
34877;DHT22;21086;44.780;17.194;2023-01-23T23:33:33;5.10;99.90
34877;DHT22;21086;44.780;17.194;2023-01-23T23:36:00;5.10;99.90
34877;DHT22;21086;44.780;17.194;2023-01-23T23:38:27;5.20;99.90
34877;DHT22;21086;44.780;17.194;2023-01-23T23:41:02;5.30;99.90
34877;DHT22;21086;44.780;17.194;2023-01-23T23:43:30;5.40;99.90
34877;DHT22;21086;44.780;17.194;2023-01-23T23:46:00;5.40;99.90
34877;DHT22;21086;44.780;17.194;2023-01-23T23:48:28;5.40;99.90
34877;DHT22;21086;44.780;17.194;2023-01-23T23:50:55;5.50;99.90
34877;DHT22;21086;44.780;17.194;2023-01-23T23:53:24;5.50;99.90
34877;DHT22;21086;44.780;17.194;2023-01-23T23:55:51;5.60;99.90
34877;DHT22;21086;44.780;17.194;2023-01-23T23:58:18;5.60;99.90
